Time;durP1;ratioP1;P1;durP2;ratioP2;P2;SDS_P1;SDS_P2;PMS_P1;PMS_P2;Temp;Humidity;BMP_temperature;BMP_pressure;BME280_temperature;BME280_humidity;BME280_pressure;Samples;Min_cycle;Max_cycle;Signal;HPM_P1;HPM_P2
2023/10/10 00:01:02;;;;;;;11.90;4.47;;;;;;;13.77;100.00;97875.59;5026701;28;20900;-85
2023/10/10 00:03:34;;;;;;;10.45;3.22;;;;;;;13.76;100.00;97883.81;5023380;28;21354;-85
2023/10/10 00:06:06;;;;;;;7.75;3.25;;;;;;;13.73;100.00;97882.50;5022102;28;20409;-86
2023/10/10 00:08:43;;;;;;;12.27;3.95;;;;;;;13.69;100.00;97878.75;5018427;28;20401;-87
2023/10/10 00:11:14;;;;;;;11.82;4.15;;;;;;;13.67;100.00;97882.75;5017779;28;20880;-86
2023/10/10 00:13:42;;;;;;;11.55;4.00;;;;;;;13.64;100.00;97881.38;5018651;28;20459;-85
2023/10/10 00:16:11;;;;;;;8.77;3.63;;;;;;;13.64;100.00;97877.94;5017544;28;20393;-86
2023/10/10 00:18:43;;;;;;;10.77;3.97;;;;;;;13.63;100.00;97884.31;5017212;28;20409;-85
2023/10/10 00:21:11;;;;;;;9.35;3.63;;;;;;;13.60;100.00;97877.66;5017533;28;20420;-87
2023/10/10 00:23:47;;;;;;;13.77;3.92;;;;;;;13.57;100.00;97880.81;5017299;28;20881;-85
2023/10/10 00:26:26;;;;;;;8.25;3.83;;;;;;;13.54;100.00;97879.47;5017319;28;20432;-85
2023/10/10 00:28:57;;;;;;;9.98;3.92;;;;;;;13.53;100.00;97883.19;5017833;28;20444;-85
2023/10/10 00:31:24;;;;;;;9.88;4.10;;;;;;;13.50;100.00;97866.94;5017565;28;20875;-85
2023/10/10 00:33:51;;;;;;;8.05;3.70;;;;;;;13.48;100.00;97871.72;5017638;28;20953;-86
2023/10/10 00:36:21;;;;;;;8.18;3.17;;;;;;;13.46;100.00;97868.50;5021078;28;20396;-86
2023/10/10 00:38:49;;;;;;;10.05;3.55;;;;;;;13.44;100.00;97868.78;5017980;28;20397;-85
2023/10/10 00:41:15;;;;;;;10.47;4.30;;;;;;;13.41;100.00;97865.81;5017214;28;20392;-85
2023/10/10 00:43:41;;;;;;;12.55;4.05;;;;;;;13.40;100.00;97864.22;5017516;28;20439;-86
2023/10/10 00:46:11;;;;;;;7.28;3.80;;;;;;;13.38;100.00;97853.84;5016751;28;20393;-86
2023/10/10 00:48:38;;;;;;;8.63;3.50;;;;;;;13.38;100.00;97853.06;5017830;28;20403;-86
2023/10/10 00:51:05;;;;;;;11.85;4.22;;;;;;;13.37;100.00;97848.81;5021470;28;20409;-86
2023/10/10 00:53:33;;;;;;;12.88;4.15;;;;;;;13.36;100.00;97847.19;5019659;28;20956;-86
2023/10/10 00:56:05;;;;;;;9.65;3.90;;;;;;;13.34;100.00;97843.97;5013149;28;20484;-86
2023/10/10 00:58:49;;;;;;;7.50;3.22;;;;;;;13.32;100.00;97851.41;5018299;28;20416;-87
2023/10/10 01:01:19;;;;;;;7.90;3.97;;;;;;;13.29;100.00;97846.63;5018468;28;20401;-87
2023/10/10 01:03:50;;;;;;;9.75;4.20;;;;;;;13.27;100.00;97849.53;5019253;28;20405;-87
2023/10/10 01:06:26;;;;;;;13.00;4.53;;;;;;;13.27;100.00;97849.53;5022070;28;20408;-86
2023/10/10 01:08:55;;;;;;;10.18;3.88;;;;;;;13.26;100.00;97849.78;5020469;28;20436;-86
2023/10/10 01:11:22;;;;;;;8.70;3.88;;;;;;;13.24;100.00;97847.38;5020973;28;20399;-85
2023/10/10 01:13:50;;;;;;;10.35;4.53;;;;;;;13.24;100.00;97858.00;5023745;28;20421;-85
2023/10/10 01:16:17;;;;;;;13.30;4.20;;;;;;;13.25;100.00;97856.16;5003303;28;20459;-86
2023/10/10 01:18:57;;;;;;;11.53;4.40;;;;;;;13.26;100.00;97847.94;5020206;28;20928;-86
2023/10/10 01:21:31;;;;;;;12.52;4.50;;;;;;;13.30;100.00;97848.22;5008806;28;20923;-87
2023/10/10 01:24:08;;;;;;;12.10;4.45;;;;;;;13.32;100.00;97841.56;5021798;28;20408;-86
2023/10/10 01:26:38;;;;;;;7.80;3.83;;;;;;;13.33;100.00;97834.41;5023881;28;20404;-86
2023/10/10 01:29:20;;;;;;;12.30;4.20;;;;;;;13.32;100.00;97840.78;5021740;28;20401;-87
2023/10/10 01:31:48;;;;;;;9.32;3.88;;;;;;;13.29;100.00;97836.78;5023089;28;20401;-87
2023/10/10 01:34:30;;;;;;;9.05;4.25;;;;;;;13.28;100.00;97827.22;5024886;28;20455;-85
2023/10/10 01:36:59;;;;;;;12.05;4.70;;;;;;;13.29;100.00;97822.69;5026123;28;20493;-86
2023/10/10 01:39:41;;;;;;;10.25;4.07;;;;;;;13.32;100.00;97830.13;5023242;28;20397;-86
2023/10/10 01:42:11;;;;;;;14.30;4.65;;;;;;;13.34;100.00;97826.19;5025092;28;20389;-87
2023/10/10 01:44:37;;;;;;;13.13;4.88;;;;;;;13.37;100.00;97824.88;5023636;28;20470;-86
2023/10/10 01:47:09;;;;;;;12.60;5.35;;;;;;;13.37;100.00;97824.88;5022446;28;20908;-86
2023/10/10 01:49:35;;;;;;;8.88;4.22;;;;;;;13.37;100.00;97830.19;5024341;28;20868;-86
2023/10/10 01:52:03;;;;;;;12.45;4.43;;;;;;;13.35;100.00;97825.13;5024000;28;20881;-87
2023/10/10 01:54:39;;;;;;;14.15;4.80;;;;;;;13.34;100.00;97830.69;5024257;28;20444;-85
2023/10/10 01:57:07;;;;;;;22.23;6.15;;;;;;;13.32;100.00;97830.13;5025557;28;20429;-85
2023/10/10 01:59:38;;;;;;;17.38;6.18;;;;;;;13.30;100.00;97838.41;5025469;28;20440;-85
2023/10/10 02:02:09;;;;;;;22.98;6.15;;;;;;;13.28;100.00;97829.06;5025618;28;20403;-86
2023/10/10 02:04:36;;;;;;;21.00;5.47;;;;;;;13.29;100.00;97834.13;5024300;28;20435;-87
2023/10/10 02:07:14;;;;;;;19.17;5.95;;;;;;;13.29;100.00;97828.81;5025588;28;20401;-88
2023/10/10 02:09:40;;;;;;;22.75;5.72;;;;;;;13.29;100.00;97823.50;5024766;28;20397;-86
2023/10/10 02:12:15;;;;;;;14.25;5.18;;;;;;;13.29;100.00;97828.81;5024962;28;20436;-86
2023/10/10 02:14:43;;;;;;;14.15;4.40;;;;;;;13.29;100.00;97825.34;5025398;28;20432;-86
2023/10/10 02:17:20;;;;;;;18.83;6.20;;;;;;;13.26;100.00;97823.19;5023960;28;20399;-86
2023/10/10 02:19:53;;;;;;;10.27;4.43;;;;;;;13.24;100.00;97822.66;5027350;28;20392;-87
2023/10/10 02:22:37;;;;;;;14.93;4.80;;;;;;;13.22;100.00;97828.25;5029222;28;20406;-85
2023/10/10 02:27:54;;;;;;;15.05;5.10;;;;;;;13.21;100.00;97821.31;5029441;28;20393;-86
2023/10/10 02:30:38;;;;;;;14.70;5.45;;;;;;;13.20;100.00;97822.38;5025572;28;20389;-86
2023/10/10 02:33:14;;;;;;;17.10;5.03;;;;;;;13.19;100.00;97826.09;5006957;28;20859;-87
2023/10/10 02:35:54;;;;;;;9.68;4.50;;;;;;;13.17;100.00;97825.53;5026743;28;20404;-86
2023/10/10 02:38:31;;;;;;;18.73;5.13;;;;;;;13.14;100.00;97818.88;5029143;28;20399;-87
2023/10/10 02:41:14;;;;;;;13.88;4.88;;;;;;;13.14;100.00;97820.75;5027036;28;20727;-85
2023/10/10 02:43:54;;;;;;;9.57;4.47;;;;;;;13.12;100.00;97820.16;5025452;28;20440;-85
2023/10/10 02:46:27;;;;;;;11.80;4.20;;;;;;;13.09;100.00;97818.00;5024294;28;20479;-86
2023/10/10 02:48:55;;;;;;;12.80;4.53;;;;;;;13.07;100.00;97820.13;5023246;28;20901;-86
2023/10/10 02:51:22;;;;;;;8.75;3.70;;;;;;;13.02;100.00;97826.19;5027618;28;20857;-85
2023/10/10 02:53:50;;;;;;;8.27;3.53;;;;;;;12.96;100.00;97827.22;5035525;28;20491;-87
2023/10/10 02:56:18;;;;;;;6.35;3.20;;;;;;;12.91;100.00;97829.06;5024347;28;20401;-87
2023/10/10 02:58:45;;;;;;;8.25;3.80;;;;;;;12.86;100.00;97823.69;5025859;28;20420;-88
2023/10/10 03:01:46;;;;;;;8.70;3.57;;;;;;;12.82;100.00;97822.59;5025812;28;20403;-87
2023/10/10 03:03:57;;;;;;;10.00;3.70;;;;;;;12.74;100.00;97830.00;5026706;28;20500;-87
2023/10/10 03:06:28;;;;;;;8.27;3.45;;;;;;;12.68;100.00;97823.03;5010410;28;20405;-87
2023/10/10 03:09:38;;;;;;;6.90;3.43;;;;;;;12.61;100.00;97827.78;5027279;28;20496;-87
2023/10/10 03:12:06;;;;;;;10.18;4.30;;;;;;;12.55;100.00;97828.78;5030459;28;20417;-87
2023/10/10 03:14:35;;;;;;;6.10;3.53;;;;;;;12.52;100.00;97825.81;5027958;28;20432;-86
2023/10/10 03:17:22;;;;;;;11.82;4.32;;;;;;;12.48;100.00;97827.38;5027083;28;20397;-86
2023/10/10 03:19:50;;;;;;;10.38;3.97;;;;;;;12.44;100.00;97823.63;5028305;28;20400;-84
2023/10/10 03:22:22;;;;;;;9.15;3.97;;;;;;;12.41;100.00;97820.41;5019702;28;20439;-85
2023/10/10 03:25:20;;;;;;;12.93;4.53;;;;;;;12.38;100.00;97820.94;5019151;28;20427;-86
2023/10/10 03:27:54;;;;;;;9.82;3.67;;;;;;;12.35;100.00;97817.97;5018493;28;20409;-85
2023/10/10 03:33:09;;;;;;;6.72;3.40;;;;;;;12.26;100.00;97830.88;5021038;28;20548;-87
2023/10/10 03:35:59;;;;;;;10.60;4.78;;;;;;;12.23;100.00;97819.97;5018749;28;20400;-87
2023/10/10 03:38:45;;;;;;;8.30;3.90;;;;;;;12.20;100.00;97823.91;5020757;28;20995;-86
2023/10/10 05:23:29;;;;;;;12.77;5.00;;;;;;;12.15;100.00;97815.91;5020617;28;20404;-87
2023/10/10 05:23:34;;;;;;;9.57;4.72;;;;;;;11.36;100.00;97836.69;4997433;28;20409;-82
2023/10/10 05:26:02;;;;;;;10.23;4.60;;;;;;;11.35;100.00;97839.59;5002167;28;20865;-79
2023/10/10 05:28:32;;;;;;;7.45;4.07;;;;;;;11.33;100.00;97837.19;5000373;28;20486;-85
2023/10/10 05:30:59;;;;;;;9.73;4.67;;;;;;;11.31;100.00;97839.28;5014023;28;20475;-85
2023/10/10 05:33:26;;;;;;;8.65;4.30;;;;;;;11.32;100.00;97848.03;5007204;28;20433;-84
2023/10/10 05:35:59;;;;;;;9.75;4.47;;;;;;;11.31;100.00;97841.13;5014461;28;20451;-85
2023/10/10 05:38:25;;;;;;;11.98;5.70;;;;;;;11.31;100.00;97835.81;5005800;28;20405;-86
2023/10/10 05:40:51;;;;;;;18.05;6.32;;;;;;;11.28;100.00;97838.97;5006088;28;20454;-85
2023/10/10 05:43:26;;;;;;;11.23;5.28;;;;;;;11.28;100.00;97838.97;5008032;28;20771;-86
2023/10/10 05:45:53;;;;;;;10.80;4.75;;;;;;;11.27;100.00;97838.19;5004454;28;20415;-84
2023/10/10 05:48:20;;;;;;;11.70;5.10;;;;;;;11.25;100.00;97837.59;5004807;28;20441;-86
2023/10/10 05:50:48;;;;;;;12.15;5.53;;;;;;;11.25;100.00;97842.91;5004806;28;20664;-86
2023/10/10 05:53:16;;;;;;;15.27;5.50;;;;;;;11.21;100.00;97845.22;5014953;28;20775;-84
2023/10/10 05:55:43;;;;;;;9.23;4.63;;;;;;;11.22;100.00;97846.03;5013178;28;20536;-83
2023/10/10 05:58:11;;;;;;;8.95;4.75;;;;;;;11.23;100.00;97847.66;5005253;28;20488;-84
2023/10/10 06:00:37;;;;;;;7.63;4.32;;;;;;;11.23;100.00;97855.59;5009014;28;20409;-84
2023/10/10 06:03:07;;;;;;;13.05;4.55;;;;;;;11.24;100.00;97854.56;5003434;28;20397;-83
2023/10/10 06:05:33;;;;;;;9.33;4.33;;;;;;;11.25;100.00;97864.09;5007778;28;20451;-82
2023/10/10 06:07:59;;;;;;;12.80;4.88;;;;;;;11.25;100.00;97859.63;5007222;28;20398;-84
2023/10/10 06:10:31;;;;;;;10.82;5.18;;;;;;;11.28;100.00;97860.19;5012853;28;20427;-83
2023/10/10 06:13:03;;;;;;;12.65;4.80;;;;;;;11.30;100.00;97863.38;5016932;28;20484;-82
2023/10/10 06:15:30;;;;;;;8.55;4.60;;;;;;;11.34;100.00;97867.16;5017603;28;20396;-81
2023/10/10 06:17:57;;;;;;;8.60;4.28;;;;;;;11.36;100.00;97871.16;5017962;28;20401;-82
2023/10/10 06:20:24;;;;;;;11.27;5.38;;;;;;;11.39;100.00;97873.31;5017792;28;20761;-83
2023/10/10 06:22:54;;;;;;;14.35;6.40;;;;;;;11.41;100.00;97873.88;5018786;28;20412;-83
2023/10/10 06:25:23;;;;;;;14.90;6.75;;;;;;;11.45;100.00;97874.19;5019207;28;20393;-84
2023/10/10 06:27:54;;;;;;;23.42;7.72;;;;;;;11.48;100.00;97874.50;5019189;28;20396;-84
2023/10/10 06:30:20;;;;;;;14.23;6.80;;;;;;;11.52;100.00;97872.97;5022085;28;20484;-85
2023/10/10 06:32:49;;;;;;;15.65;6.45;;;;;;;11.57;100.00;97874.91;5020697;28;20892;-86
2023/10/10 06:37:45;;;;;;;9.57;5.00;;;;;;;11.68;100.00;97876.63;5020767;28;20889;-85
2023/10/10 06:40:13;;;;;;;14.23;5.78;;;;;;;11.75;100.00;97873.81;5020802;28;20432;-83
2023/10/10 06:42:46;;;;;;;13.95;5.90;;;;;;;11.80;100.00;97876.56;5021602;28;20401;-84
2023/10/10 06:45:21;;;;;;;11.32;5.10;;;;;;;11.87;100.00;97871.88;5004958;28;20413;-84
2023/10/10 06:47:50;;;;;;;14.32;5.45;;;;;;;11.96;100.00;97873.00;5025941;28;20829;-83
2023/10/10 06:50:21;;;;;;;13.07;5.43;;;;;;;12.05;100.00;97868.06;5025553;28;20567;-84
2023/10/10 06:52:47;;;;;;;11.63;5.18;;;;;;;12.18;100.00;97878.31;5023802;28;20407;-86
2023/10/10 06:55:21;;;;;;;13.68;5.18;;;;;;;12.31;100.00;97873.41;5023661;28;20427;-85
2023/10/10 06:58:01;;;;;;;10.23;4.45;;;;;;;12.44;100.00;97869.56;5024873;28;20409;-84
2023/10/10 07:00:42;;;;;;;7.60;4.20;;;;;;;12.56;100.00;97869.38;5030608;28;20396;-84
2023/10/10 07:03:09;;;;;;;17.13;6.53;;;;;;;12.63;100.00;97865.47;5023480;28;20757;-85
2023/10/10 07:05:39;;;;;;;19.67;5.82;;;;;;;12.70;100.00;97865.28;5020349;28;20431;-81
2023/10/10 07:08:13;;;;;;;15.32;6.30;;;;;;;12.77;100.00;97864.03;5022136;28;20393;-82
2023/10/10 07:10:42;;;;;;;16.48;5.78;;;;;;;12.87;100.00;97857.97;4985060;28;20411;-86
2023/10/10 07:13:19;;;;;;;9.97;4.67;;;;;;;12.98;100.00;97853.56;5006091;28;20407;-82
2023/10/10 07:15:53;;;;;;;12.77;5.20;;;;;;;13.12;100.00;97860.84;4987264;28;20402;-83
2023/10/10 07:18:23;;;;;;;11.93;5.07;;;;;;;13.28;100.00;97856.44;5014560;28;20427;-85
2023/10/10 07:23:37;;;;;;;8.77;4.03;;;;;;;13.54;100.00;97858.19;5010828;28;20402;-84
2023/10/10 07:26:05;;;;;;;9.20;4.30;;;;;;;13.67;100.00;97859.59;5015345;28;20432;-82
2023/10/10 07:28:47;;;;;;;8.57;4.10;;;;;;;13.77;100.00;97853.50;5019250;28;20420;-84
2023/10/10 07:31:17;;;;;;;8.00;4.10;;;;;;;13.91;100.00;97862.59;5017373;28;20430;-84
2023/10/10 07:33:44;;;;;;;8.32;3.97;;;;;;;14.06;100.00;97859.22;5018781;28;20419;-82
2023/10/10 07:36:13;;;;;;;9.27;4.20;;;;;;;14.21;100.00;97869.91;5018497;28;20869;-83
2023/10/10 07:38:39;;;;;;;12.85;4.72;;;;;;;14.36;100.00;97867.28;5012986;28;20407;-84
2023/10/10 07:41:05;;;;;;;9.43;4.50;;;;;;;14.51;100.00;97863.91;5013808;28;20398;-84
2023/10/10 07:43:34;;;;;;;8.68;4.40;;;;;;;14.62;100.00;97868.16;5014214;28;20416;-84
2023/10/10 07:46:12;;;;;;;8.35;4.05;;;;;;;14.69;100.00;97869.50;5015347;28;20464;-85
2023/10/10 07:48:44;;;;;;;8.85;4.15;;;;;;;14.81;100.00;97871.88;5008707;28;20402;-85
2023/10/10 07:51:10;;;;;;;8.40;4.25;;;;;;;14.90;100.00;97872.97;5021929;28;20424;-84
2023/10/10 07:53:44;;;;;;;11.10;4.60;;;;;;;14.98;100.00;97869.75;5019582;28;20451;-82
2023/10/10 07:56:10;;;;;;;11.25;4.80;;;;;;;15.10;100.00;97875.66;5001228;28;20428;-84
2023/10/10 07:58:49;;;;;;;10.82;4.70;;;;;;;15.20;100.00;97876.69;5019167;28;20454;-84
2023/10/10 08:01:16;;;;;;;10.05;4.68;;;;;;;15.31;100.00;97876.41;5018889;28;20396;-84
2023/10/10 08:03:45;;;;;;;10.27;5.10;;;;;;;15.39;100.00;97883.88;5019479;28;20409;-85
2023/10/10 08:06:11;;;;;;;11.43;4.93;;;;;;;15.49;100.00;97886.50;5112670;23;20444;-83
2023/10/10 08:08:40;;;;;;;12.13;4.53;;;;;;;15.62;100.00;97884.38;5004272;28;20395;-84
2023/10/10 08:11:12;;;;;;;27.63;6.47;;;;;;;15.77;100.00;97882.47;5006038;28;20558;-85
2023/10/10 08:13:40;;;;;;;22.90;7.95;;;;;;;15.99;100.00;97886.66;5003922;28;20899;-85
2023/10/10 08:16:06;;;;;;;23.35;7.88;;;;;;;16.20;100.00;97880.97;4993388;28;20404;-86
2023/10/10 08:21:12;;;;;;;17.65;7.70;;;;;;;16.70;100.00;97875.59;5006787;28;20426;-85
2023/10/10 08:23:46;;;;;;;14.32;6.00;;;;;;;16.91;100.00;97880.56;5001402;28;20442;-84
2023/10/10 08:26:18;;;;;;;11.67;5.27;;;;;;;17.13;100.00;97885.44;4998543;28;20401;-83
2023/10/10 08:28:45;;;;;;;13.10;5.53;;;;;;;17.30;100.00;97877.78;5009278;28;20402;-85
2023/10/10 08:31:13;;;;;;;11.98;5.53;;;;;;;17.48;100.00;97884.31;5011968;28;20409;-84
2023/10/10 08:33:39;;;;;;;12.88;5.80;;;;;;;17.66;100.00;97885.50;5011588;28;20524;-82
2023/10/10 08:36:06;;;;;;;14.73;5.13;;;;;;;17.86;100.00;97887.16;5007043;28;20472;-81
2023/10/10 08:38:33;;;;;;;12.20;5.18;;;;;;;18.02;100.00;97889.38;5007986;28;20411;-85
2023/10/10 08:41:08;;;;;;;14.88;5.38;;;;;;;18.16;100.00;97878.75;5007656;28;20425;-82
2023/10/10 08:43:42;;;;;;;10.85;5.22;;;;;;;18.25;100.00;97887.75;5005487;28;20413;-85
2023/10/10 08:46:12;;;;;;;14.77;5.20;;;;;;;18.35;100.00;97882.22;5006339;28;20426;-84
2023/10/10 08:48:41;;;;;;;11.75;5.15;;;;;;;18.40;100.00;97889.44;5005608;28;20402;-85
2023/10/10 08:51:07;;;;;;;13.02;4.72;;;;;;;18.40;100.00;97884.06;5008572;28;20398;-84
2023/10/10 08:53:38;;;;;;;10.90;4.90;;;;;;;18.40;100.00;97892.09;5010352;28;20429;-84
2023/10/10 08:56:06;;;;;;;11.85;4.93;;;;;;;18.42;100.00;97882.69;5011971;28;20736;-85
2023/10/10 08:58:32;;;;;;;9.55;4.53;;;;;;;18.45;100.00;97868.69;5011548;28;20494;-84
2023/10/10 09:00:59;;;;;;;10.00;4.10;;;;;;;18.45;100.00;97879.44;5009980;28;20417;-84
2023/10/10 09:03:26;;;;;;;11.55;4.90;;;;;;;18.42;100.00;97871.94;5013421;28;20439;-84
2023/10/10 09:05:52;;;;;;;10.63;4.68;;;;;;;18.37;100.00;97877.41;5014061;28;20421;-86
2023/10/10 09:08:26;;;;;;;10.23;4.47;;;;;;;18.37;100.00;97877.41;5012285;28;20410;-84
2023/10/10 09:10:56;;;;;;;9.30;4.65;;;;;;;18.43;100.00;97870.06;5010192;28;20390;-86
2023/10/10 09:13:25;;;;;;;10.98;4.53;;;;;;;18.53;100.00;97876.09;5011778;28;20426;-86
2023/10/10 09:15:56;;;;;;;9.33;4.50;;;;;;;18.62;100.00;97880.84;5011958;28;20398;-86
2023/10/10 09:18:25;;;;;;;9.90;4.07;;;;;;;18.73;100.00;97877.69;5012788;28;20387;-83
2023/10/10 09:20:53;;;;;;;10.82;4.35;;;;;;;18.87;100.00;97873.19;5009108;28;20469;-84
2023/10/10 09:23:23;;;;;;;10.93;4.70;;;;;;;19.03;100.00;97875.63;5010721;28;20398;-85
2023/10/10 09:25:57;;;;;;;17.48;6.60;;;;;;;19.10;100.00;97876.03;5010253;28;20408;-85
2023/10/10 09:28:30;;;;;;;14.27;5.57;;;;;;;19.29;100.00;97869.56;5007947;28;20426;-85
2023/10/10 09:31:03;;;;;;;22.98;7.03;;;;;;;19.26;100.00;97869.34;4989868;28;20398;-84
2023/10/10 09:33:33;;;;;;;24.50;7.22;;;;;;;19.35;100.00;97878.31;5006493;28;20403;-85
2023/10/10 09:36:19;;;;;;;18.33;7.20;;;;;;;19.79;100.00;97869.72;5003628;28;20918;-84
2023/10/10 09:38:46;;;;;;;20.85;6.97;;;;;;;20.11;100.00;97871.50;5000286;28;20418;-84
2023/10/10 09:49:40;;;;;;;16.50;5.60;;;;;;;21.14;100.00;97872.41;4979477;28;20963;-83
2023/10/10 09:54:55;;;;;;;14.98;6.05;;;;;;;21.69;100.00;97876.69;4979517;28;20491;-82
2023/10/10 09:57:26;;;;;;;14.73;6.07;;;;;;;21.94;100.00;97870.59;4990618;28;20794;-81
2023/10/10 09:59:56;;;;;;;16.23;5.07;;;;;;;22.14;100.00;97871.94;4983558;28;20401;-80
2023/10/10 10:02:40;;;;;;;12.02;4.85;;;;;;;22.23;100.00;97870.84;4980816;28;20404;-81
2023/10/10 10:05:13;;;;;;;10.27;4.63;;;;;;;22.25;100.00;97875.94;4991095;28;20411;-82
2023/10/10 10:07:58;;;;;;;11.90;5.13;;;;;;;22.22;100.00;97890.03;4992009;28;20481;-81
2023/10/10 10:10:48;;;;;;;20.38;8.02;;;;;;;22.04;100.00;97881.09;4996977;28;20444;-80
2023/10/10 10:13:37;;;;;;;15.15;6.50;;;;;;;21.90;100.00;97883.88;4997646;28;20426;-82
2023/10/10 10:16:25;;;;;;;21.75;7.30;;;;;;;21.69;100.00;97880.16;4983308;28;20483;-82
2023/10/10 10:19:11;;;;;;;28.55;7.25;;;;;;;21.47;97.97;97872.13;4984124;28;20399;-83
2023/10/10 10:21:51;;;;;;;21.97;6.70;;;;;;;21.20;93.83;97879.25;4998227;28;20482;-82
2023/10/10 10:24:26;;;;;;;15.90;5.90;;;;;;;21.13;96.82;97878.06;4985063;28;20498;-83
2023/10/10 10:27:14;;;;;;;16.27;6.50;;;;;;;21.06;98.10;97878.50;4989951;28;20449;-80
2023/10/10 10:29:53;;;;;;;13.18;5.50;;;;;;;21.14;100.00;97879.66;4985896;28;20412;-82
2023/10/10 10:32:24;;;;;;;14.85;5.50;;;;;;;21.24;100.00;97874.88;4978201;28;20411;-83
2023/10/10 10:34:55;;;;;;;19.23;5.93;;;;;;;21.35;100.00;97870.00;4977756;28;20900;-81
2023/10/10 10:37:23;;;;;;;19.02;6.30;;;;;;;21.36;100.00;97870.81;4978679;28;20533;-82
2023/10/10 10:42:51;;;;;;;11.10;4.80;;;;;;;21.59;100.00;97872.34;4969293;28;20430;-82
2023/10/10 10:45:34;;;;;;;10.25;4.43;;;;;;;21.72;100.00;97867.97;4985659;28;20804;-80
2023/10/10 10:48:07;;;;;;;10.55;4.13;;;;;;;21.84;100.00;97874.38;4984117;28;21076;-85
2023/10/10 10:50:42;;;;;;;9.65;4.40;;;;;;;21.91;100.00;97877.41;4988121;28;20401;-84
2023/10/10 10:53:30;;;;;;;11.18;4.60;;;;;;;22.07;100.00;97868.91;4990363;28;20453;-83
2023/10/10 11:01:21;;;;;;;8.68;3.55;;;;;;;22.65;100.00;97863.09;4982441;28;20451;-81
2023/10/10 11:03:53;;;;;;;9.43;4.03;;;;;;;22.84;100.00;97865.53;4982336;28;20408;-81
2023/10/10 11:06:23;;;;;;;9.20;3.90;;;;;;;23.02;100.00;97859.78;4982489;28;20471;-81
2023/10/10 11:14:03;;;;;;;8.00;3.65;;;;;;;23.53;100.00;97861.59;4981608;28;20428;-82
2023/10/10 11:16:44;;;;;;;8.18;4.10;;;;;;;23.60;100.00;97855.69;4980643;28;20473;-80
2023/10/10 11:21:49;;;;;;;8.93;3.55;;;;;;;23.63;100.00;97846.94;4981807;28;20400;-82
2023/10/10 11:24:23;;;;;;;8.60;4.18;;;;;;;23.61;100.00;97849.16;4984283;28;20404;-80
2023/10/10 11:26:56;;;;;;;9.35;4.53;;;;;;;23.60;100.00;97844.88;4980906;28;20396;-80
2023/10/10 11:29:27;;;;;;;10.73;4.45;;;;;;;23.63;100.00;97844.22;4981523;28;20443;-79
2023/10/10 11:32:06;;;;;;;9.13;4.72;;;;;;;23.71;100.00;97839.91;4981004;28;20397;-80
2023/10/10 11:34:42;;;;;;;16.80;5.90;;;;;;;23.75;100.00;97838.16;4982801;28;20428;-81
2023/10/10 11:37:13;;;;;;;14.48;4.85;;;;;;;23.81;100.00;97824.13;4980573;28;20409;-80
2023/10/10 11:39:47;;;;;;;10.40;4.78;;;;;;;23.87;100.00;97830.13;4980526;28;20404;-79
2023/10/10 11:42:24;;;;;;;28.77;6.57;;;;;;;23.96;100.00;97822.75;4980679;28;20408;-79
2023/10/10 11:44:53;;;;;;;18.95;4.97;;;;;;;24.03;100.00;97819.53;4980756;28;20455;-80
2023/10/10 11:47:24;;;;;;;10.25;4.47;;;;;;;24.04;100.00;97813.81;4980278;28;20893;-80
2023/10/10 11:50:00;;;;;;;10.30;4.22;;;;;;;24.01;100.00;97806.34;4962926;28;20663;-82
2023/10/10 11:52:27;;;;;;;8.73;4.25;;;;;;;23.95;100.00;97807.66;4979695;28;20415;-82
2023/10/10 11:54:55;;;;;;;10.35;4.53;;;;;;;23.87;100.00;97812.00;4979927;28;20416;-79
2023/10/10 11:57:21;;;;;;;9.20;4.03;;;;;;;23.81;100.00;97807.09;4979322;28;20428;-80
2023/10/10 11:59:47;;;;;;;12.35;4.72;;;;;;;23.78;100.00;97805.03;4980613;28;20396;-79
2023/10/10 12:02:16;;;;;;;10.55;4.30;;;;;;;23.73;100.00;97800.63;4980224;28;20404;-80
2023/10/10 12:04:44;;;;;;;12.38;4.22;;;;;;;23.73;100.00;97794.41;4979200;28;20419;-80
2023/10/10 12:07:14;;;;;;;11.32;5.20;;;;;;;23.63;100.00;97800.19;4980155;28;20407;-81
2023/10/10 12:09:44;;;;;;;11.55;4.80;;;;;;;23.54;100.00;97794.81;4980229;28;20412;-80
2023/10/10 12:12:11;;;;;;;10.77;4.57;;;;;;;23.52;100.00;97788.97;4979331;28;20472;-80
2023/10/10 12:14:38;;;;;;;9.85;4.28;;;;;;;23.54;100.00;97795.59;4983813;28;20509;-82
2023/10/10 12:17:07;;;;;;;11.98;4.40;;;;;;;23.63;100.00;97794.78;4989120;28;20404;-82
2023/10/10 12:19:37;;;;;;;14.68;4.70;;;;;;;23.73;100.00;97786.31;4979903;28;20400;-80
2023/10/10 12:22:08;;;;;;;12.30;4.80;;;;;;;23.85;100.00;97787.19;4982210;28;20395;-82
2023/10/10 12:24:36;;;;;;;14.57;4.90;;;;;;;23.96;100.00;97784.91;4979581;28;20411;-81
2023/10/10 12:27:06;;;;;;;15.55;4.82;;;;;;;24.04;100.00;97784.06;4963292;28;20440;-82
2023/10/10 12:29:33;;;;;;;12.38;4.55;;;;;;;24.11;100.00;97781.63;4979666;28;20447;-84
2023/10/10 12:32:02;;;;;;;11.23;4.20;;;;;;;24.13;100.00;97779.34;4980674;28;20401;-82
2023/10/10 12:34:34;;;;;;;10.33;4.13;;;;;;;24.15;100.00;97771.72;4979880;28;20424;-82
2023/10/10 12:37:00;;;;;;;8.57;3.53;;;;;;;24.20;100.00;97774.25;4980497;28;20415;-82
2023/10/10 12:39:27;;;;;;;8.63;3.73;;;;;;;24.33;100.00;97758.09;4980590;28;20412;-82
2023/10/10 12:41:55;;;;;;;9.33;3.73;;;;;;;24.45;100.00;97758.91;4980647;28;20404;-83
2023/10/10 12:44:23;;;;;;;10.10;4.00;;;;;;;24.60;100.00;97760.22;4981967;28;20416;-82
2023/10/10 12:46:54;;;;;;;10.23;4.00;;;;;;;24.72;100.00;97754.88;5005494;28;20421;-82
2023/10/10 12:49:28;;;;;;;11.60;4.70;;;;;;;24.76;100.00;97755.75;5000730;28;20411;-83
2023/10/10 12:51:57;;;;;;;12.93;5.20;;;;;;;24.79;100.00;97759.72;5000016;28;20399;-82
2023/10/10 12:54:34;;;;;;;10.55;4.40;;;;;;;24.75;100.00;97754.19;4994204;28;20803;-81
2023/10/10 12:57:06;;;;;;;11.15;3.92;;;;;;;24.67;100.00;97755.84;4981861;28;20404;-80
2023/10/10 12:59:32;;;;;;;12.30;4.30;;;;;;;24.61;100.00;97749.06;4984710;28;20432;-81
2023/10/10 13:02:03;;;;;;;9.23;4.20;;;;;;;24.57;100.00;97752.78;4990050;28;20510;-79
2023/10/10 13:04:32;;;;;;;13.43;4.57;;;;;;;24.62;100.00;97747.94;4996664;28;20760;-79
2023/10/10 13:07:04;;;;;;;8.63;4.28;;;;;;;24.82;100.00;97753.63;4981473;28;20952;-81
2023/10/10 13:09:42;;;;;;;11.57;4.65;;;;;;;25.06;100.00;97751.81;4994643;28;20435;-80
2023/10/10 13:12:18;;;;;;;13.02;4.97;;;;;;;25.50;100.00;97746.63;5002174;28;20418;-79
2023/10/10 13:14:50;;;;;;;10.57;4.10;;;;;;;25.97;100.00;97751.59;4993817;28;20515;-82
2023/10/10 13:17:29;;;;;;;11.70;5.18;;;;;;;26.31;100.00;97753.81;5003625;28;20430;-81
2023/10/10 13:19:58;;;;;;;11.95;4.65;;;;;;;26.57;100.00;97747.94;4997308;28;20418;-81
2023/10/10 13:22:28;;;;;;;14.02;4.80;;;;;;;26.71;100.00;97744.81;4994543;28;20399;-79
2023/10/10 13:24:55;;;;;;;11.13;4.53;;;;;;;26.70;100.00;97754.09;4997287;28;20413;-78
2023/10/10 13:27:25;;;;;;;12.13;4.40;;;;;;;26.59;100.00;97748.38;4988222;28;20440;-83
2023/10/10 13:29:51;;;;;;;12.13;4.95;;;;;;;26.36;100.00;97750.84;4978010;28;20495;-84
2023/10/10 13:32:20;;;;;;;8.73;3.80;;;;;;;26.12;100.00;97757.09;4980128;28;20881;-82
2023/10/10 13:34:46;;;;;;;12.05;4.47;;;;;;;25.90;100.00;97741.31;4980071;28;20466;-79
2023/10/10 13:37:13;;;;;;;10.60;3.95;;;;;;;25.69;100.00;97741.47;4978380;28;20400;-80
2023/10/10 13:39:47;;;;;;;8.95;3.47;;;;;;;25.53;100.00;97743.25;4977799;28;20734;-81
2023/10/10 13:42:20;;;;;;;12.70;4.20;;;;;;;25.36;100.00;97743.47;4978764;28;20462;-81
2023/10/10 13:44:52;;;;;;;9.82;4.05;;;;;;;25.18;100.00;97744.84;4978291;28;20470;-81
2023/10/10 13:47:18;;;;;;;7.82;3.63;;;;;;;25.02;100.00;97736.56;4979324;28;20487;-81
2023/10/10 13:49:45;;;;;;;7.03;3.10;;;;;;;24.91;100.00;97740.81;4979200;28;20419;-83
2023/10/10 13:52:12;;;;;;;9.02;3.85;;;;;;;24.78;100.00;97744.59;4988228;28;20408;-84
2023/10/10 13:54:39;;;;;;;7.00;3.70;;;;;;;24.66;100.00;97743.44;5004744;28;21007;-83
2023/10/10 13:57:07;;;;;;;8.03;3.67;;;;;;;24.55;100.00;97747.69;5009346;28;20403;-83
2023/10/10 13:59:33;;;;;;;9.95;3.67;;;;;;;24.40;100.00;97733.97;5007646;28;20432;-80